createdAt,value
2017-08-04T00:01:34.240Z,100708.39
2017-08-04T00:04:02.286Z,100703.66
2017-08-04T00:06:33.946Z,100697.66
2017-08-04T00:09:02.826Z,100689.42
2017-08-04T00:11:31.566Z,100690.86
2017-08-04T00:14:01.539Z,100693.32
2017-08-04T00:16:29.251Z,100695.86
2017-08-04T00:18:57.359Z,100685.45
2017-08-04T00:21:25.051Z,100683.97
2017-08-04T00:26:27.163Z,100688.28
2017-08-04T00:28:56.517Z,100688.13
2017-08-04T00:31:24.611Z,100684.91
2017-08-04T00:33:52.637Z,100689.91
2017-08-04T00:36:22.746Z,100691.36
2017-08-04T00:38:51.440Z,100698.02
2017-08-04T00:41:21.707Z,100697.09
2017-08-04T00:43:52.825Z,100703.75
2017-08-04T00:46:21.512Z,100704.98
2017-08-04T00:48:49.975Z,100710.06
2017-08-04T00:51:18.394Z,100706.16
2017-08-04T00:53:48.331Z,100701.02
2017-08-04T00:56:16.109Z,100698.79
2017-08-04T00:58:46.429Z,100705.24
2017-08-04T01:01:14.687Z,100697.76
2017-08-04T01:03:42.901Z,100712.41
2017-08-04T01:06:10.836Z,100711.27
2017-08-04T01:08:38.903Z,100716.75
2017-08-04T01:11:08.135Z,100714.49
2017-08-04T01:13:38.076Z,100713.62
2017-08-04T01:16:05.715Z,100710.36
2017-08-04T01:18:34.500Z,100711.66
2017-08-04T01:21:04.171Z,100711.75
2017-08-04T01:23:33.652Z,100708.00
2017-08-04T01:26:02.342Z,100697.87
2017-08-04T01:28:30.136Z,100706.61
2017-08-04T01:30:59.103Z,100713.59
2017-08-04T01:33:27.755Z,100716.95
2017-08-04T01:35:56.438Z,100712.53
2017-08-04T01:38:26.364Z,100714.17
2017-08-04T01:40:54.747Z,100721.75
2017-08-04T01:43:23.561Z,100722.04
2017-08-04T01:45:51.790Z,100722.38
2017-08-04T01:48:20.970Z,100727.89
2017-08-04T01:50:51.752Z,100724.82
2017-08-04T01:53:19.714Z,100729.66
2017-08-04T01:55:47.944Z,100734.66
2017-08-04T01:58:17.027Z,100734.45
2017-08-04T02:00:46.725Z,100718.37
2017-08-04T02:03:19.069Z,100715.95
2017-08-04T02:05:48.182Z,100717.44
2017-08-04T02:08:16.512Z,100710.37
2017-08-04T02:10:45.251Z,100710.73
2017-08-04T02:13:16.309Z,100713.80
2017-08-04T02:15:44.688Z,100718.94
2017-08-04T02:18:14.454Z,100716.95
2017-08-04T02:20:44.403Z,100722.13
2017-08-04T02:23:13.209Z,100720.74
2017-08-04T02:25:42.920Z,100713.72
2017-08-04T02:28:13.626Z,100714.37
2017-08-04T02:30:42.050Z,100715.67
2017-08-04T02:33:10.363Z,100707.78
2017-08-04T02:35:38.432Z,100707.41
2017-08-04T02:38:06.988Z,100704.27
2017-08-04T02:40:39.745Z,100709.36
2017-08-04T02:43:09.077Z,100711.05
2017-08-04T02:45:37.075Z,100715.08
2017-08-04T02:48:06.833Z,100712.80
2017-08-04T02:50:35.336Z,100716.08
2017-08-04T02:53:03.000Z,100715.95
2017-08-04T02:55:30.706Z,100720.47
2017-08-04T02:57:58.464Z,100725.00
2017-08-04T03:00:27.853Z,100717.94
2017-08-04T03:02:56.031Z,100720.11
2017-08-04T03:05:25.662Z,100718.47
2017-08-04T03:07:53.882Z,100717.42
2017-08-04T03:10:24.210Z,100719.92
2017-08-04T03:12:53.481Z,100722.65
2017-08-04T03:15:22.898Z,100725.59
2017-08-04T03:17:52.104Z,100726.75
2017-08-04T03:20:19.761Z,100728.37
2017-08-04T03:22:47.863Z,100723.88
2017-08-04T03:25:16.144Z,100718.48
2017-08-04T03:27:45.588Z,100728.24
2017-08-04T03:30:14.852Z,100718.44
2017-08-04T03:32:42.792Z,100724.03
2017-08-04T03:35:10.524Z,100732.81
2017-08-04T03:37:41.626Z,100729.29
2017-08-04T03:40:10.902Z,100717.38
2017-08-04T03:42:39.757Z,100718.28
2017-08-04T03:45:07.688Z,100715.61
2017-08-04T03:47:37.557Z,100712.45
2017-08-04T03:50:05.669Z,100711.05
2017-08-04T03:52:36.401Z,100710.58
2017-08-04T03:55:05.086Z,100712.45
2017-08-04T03:57:34.106Z,100712.05
2017-08-04T04:00:03.289Z,100718.78
2017-08-04T04:02:32.145Z,100724.09
2017-08-04T04:05:02.285Z,100725.50
2017-08-04T04:07:31.692Z,100730.41
2017-08-04T04:10:03.032Z,100735.35
2017-08-04T04:12:31.144Z,100726.06
2017-08-04T04:15:01.032Z,100728.81
2017-08-04T04:17:28.728Z,100718.94
2017-08-04T04:19:57.842Z,100711.28
2017-08-04T04:22:26.509Z,100710.77
2017-08-04T04:24:54.670Z,100710.11
2017-08-04T04:27:22.738Z,100702.67
2017-08-04T04:29:53.135Z,100711.28
2017-08-04T04:32:21.218Z,100712.64
2017-08-04T04:34:49.613Z,100711.23
2017-08-04T04:37:17.544Z,100715.69
2017-08-04T04:39:47.209Z,100716.55
2017-08-04T04:42:17.268Z,100717.86
2017-08-04T04:44:45.251Z,100721.59
2017-08-04T04:47:13.333Z,100717.09
2017-08-04T04:49:41.075Z,100718.67
2017-08-04T04:52:09.138Z,100713.62
2017-08-04T04:54:38.734Z,100704.83
2017-08-04T04:57:07.579Z,100710.05
2017-08-04T04:59:35.370Z,100714.31
2017-08-04T05:02:03.012Z,100717.81
2017-08-04T05:04:32.666Z,100715.98
2017-08-04T05:07:01.226Z,100722.62
2017-08-04T05:09:30.978Z,100722.59
2017-08-04T05:11:59.922Z,100726.39
2017-08-04T05:14:28.026Z,100725.61
2017-08-04T05:16:57.486Z,100728.04
2017-08-04T05:21:59.922Z,100719.06
2017-08-04T05:27:01.601Z,100725.95
2017-08-04T05:29:29.286Z,100722.67
2017-08-04T05:31:57.445Z,100720.11
2017-08-04T05:34:25.064Z,100724.03
2017-08-04T05:36:53.351Z,100734.02
2017-08-04T05:39:21.896Z,100722.80
2017-08-04T05:41:49.989Z,100723.16
2017-08-04T05:44:18.773Z,100714.98
2017-08-04T05:46:46.466Z,100712.67
2017-08-04T05:49:14.491Z,100712.64
2017-08-04T05:51:42.149Z,100715.61
2017-08-04T05:54:09.846Z,100707.05
2017-08-04T05:59:10.391Z,100704.04
2017-08-04T06:01:40.104Z,100714.54
2017-08-04T06:04:08.623Z,100711.78
2017-08-04T06:06:37.930Z,100708.31
2017-08-04T06:09:07.469Z,100722.65
2017-08-04T06:11:35.559Z,100724.75
2017-08-04T06:14:03.639Z,100733.05
2017-08-04T06:16:31.976Z,100729.53
2017-08-04T06:19:01.610Z,100721.77
2017-08-04T06:21:30.016Z,100713.48
2017-08-04T06:23:58.818Z,100713.91
2017-08-04T06:26:27.615Z,100696.33
2017-08-04T06:28:56.562Z,100698.37
2017-08-04T06:31:25.820Z,100706.63
2017-08-04T06:33:55.523Z,100711.68
2017-08-04T06:36:26.923Z,100715.20
2017-08-04T06:38:54.735Z,100716.39
2017-08-04T06:41:23.104Z,100702.78
2017-08-04T06:43:51.501Z,100700.58
2017-08-04T06:46:20.545Z,100696.91
2017-08-04T06:48:48.945Z,100692.73
2017-08-04T06:51:17.685Z,100714.30
2017-08-04T06:53:46.834Z,100717.45
2017-08-04T06:56:15.003Z,100712.63
2017-08-04T06:58:42.763Z,100705.64
2017-08-04T07:01:11.098Z,100694.34
2017-08-04T07:03:39.124Z,100683.11
2017-08-04T07:06:06.717Z,100694.49
2017-08-04T07:08:34.343Z,100704.97
2017-08-04T07:11:04.813Z,100692.00
2017-08-04T07:13:32.455Z,100686.36
2017-08-04T07:16:01.457Z,100684.02
2017-08-04T07:18:29.078Z,100684.62
2017-08-04T07:20:57.041Z,100690.52
2017-08-04T07:23:25.170Z,100695.88
2017-08-04T07:25:52.790Z,100708.33
2017-08-04T07:28:21.275Z,100699.34
2017-08-04T07:30:50.643Z,100698.40
2017-08-04T07:33:19.116Z,100691.17
2017-08-04T07:35:48.786Z,100680.18
2017-08-04T07:38:16.736Z,100693.50
2017-08-04T07:40:45.584Z,100686.56
2017-08-04T07:43:14.470Z,100687.38
2017-08-04T07:45:44.423Z,100689.61
2017-08-04T07:48:12.105Z,100698.77
2017-08-04T07:50:40.518Z,100699.75
2017-08-04T07:53:09.926Z,100692.17
2017-08-04T07:55:37.666Z,100694.34
2017-08-04T07:58:07.630Z,100682.55
2017-08-04T08:00:36.856Z,100679.70
2017-08-04T08:03:04.568Z,100687.08
2017-08-04T08:05:33.040Z,100686.38
2017-08-04T08:08:00.771Z,100691.44
2017-08-04T08:10:28.740Z,100684.02
2017-08-04T08:12:56.400Z,100689.24
2017-08-04T08:15:26.094Z,100671.97
2017-08-04T08:17:53.706Z,100679.52
2017-08-04T08:20:23.610Z,100681.38
2017-08-04T08:22:51.562Z,100678.19
2017-08-04T08:25:19.557Z,100675.77
2017-08-04T08:27:48.099Z,100663.78
2017-08-04T08:30:16.412Z,100670.55
2017-08-04T08:32:44.690Z,100681.48
2017-08-04T08:35:13.705Z,100680.02
2017-08-04T08:37:41.401Z,100674.11
2017-08-04T08:40:09.329Z,100675.30
2017-08-04T08:42:37.028Z,100667.63
2017-08-04T08:45:05.338Z,100663.05
2017-08-04T08:47:33.418Z,100672.67
2017-08-04T08:50:03.907Z,100660.77
2017-08-04T08:52:32.425Z,100671.34
2017-08-04T08:55:00.208Z,100664.99
2017-08-04T08:57:28.266Z,100664.61
2017-08-04T08:59:56.765Z,100664.37
2017-08-04T09:02:26.172Z,100666.41
2017-08-04T09:04:54.765Z,100657.87
2017-08-04T09:07:23.266Z,100664.54
2017-08-04T09:09:52.584Z,100663.84
2017-08-04T09:12:20.255Z,100670.78
2017-08-04T09:14:50.734Z,100665.23
2017-08-04T09:17:19.308Z,100665.38
2017-08-04T09:19:48.329Z,100659.51
2017-08-04T09:22:15.933Z,100660.92
2017-08-04T09:24:44.369Z,100667.41
2017-08-04T09:27:13.967Z,100667.63
2017-08-04T09:29:42.858Z,100677.36
2017-08-04T09:32:10.454Z,100675.47
2017-08-04T09:34:38.089Z,100672.47
2017-08-04T09:37:06.084Z,100690.63
2017-08-04T09:39:33.813Z,100683.48
2017-08-04T09:42:03.652Z,100686.41
2017-08-04T09:44:35.609Z,100679.85
2017-08-04T09:47:03.231Z,100687.23
2017-08-04T09:49:30.864Z,100698.61
2017-08-04T09:51:59.044Z,100681.44
2017-08-04T09:54:26.663Z,100691.92
2017-08-04T09:56:54.284Z,100695.95
2017-08-04T09:59:22.145Z,100695.50
2017-08-04T10:01:49.765Z,100693.73
2017-08-04T10:04:17.648Z,100688.39
2017-08-04T10:06:45.277Z,100679.58
2017-08-04T10:09:13.049Z,100677.58
2017-08-04T10:11:41.026Z,100689.34
2017-08-04T10:14:08.635Z,100688.95
2017-08-04T10:16:36.257Z,100689.53
2017-08-04T10:19:03.888Z,100686.80
2017-08-04T10:21:31.524Z,100682.69
2017-08-04T10:23:59.143Z,100692.59
2017-08-04T10:26:26.859Z,100693.00
2017-08-04T10:28:54.629Z,100690.16
2017-08-04T10:31:22.444Z,100682.44
2017-08-04T10:33:50.312Z,100684.39
2017-08-04T10:36:18.136Z,100692.09
2017-08-04T10:38:46.023Z,100697.67
2017-08-04T10:41:13.896Z,100689.57
2017-08-04T10:43:41.780Z,100701.33
2017-08-04T10:46:09.580Z,100695.83
2017-08-04T10:48:37.442Z,100701.51
2017-08-04T10:51:05.267Z,100707.41
2017-08-04T10:53:33.092Z,100686.91
2017-08-04T10:56:00.959Z,100681.14
2017-08-04T10:58:28.806Z,100672.84
2017-08-04T11:00:56.694Z,100677.35
2017-08-04T11:03:24.518Z,100681.02
2017-08-04T11:05:52.459Z,100667.44
2017-08-04T11:08:20.229Z,100672.67
2017-08-04T11:10:48.071Z,100677.78
2017-08-04T11:13:15.813Z,100658.25
2017-08-04T11:15:43.610Z,100670.85
2017-08-04T11:18:11.363Z,100670.58
2017-08-04T11:20:39.164Z,100670.53
2017-08-04T11:23:07.033Z,100675.69
2017-08-04T11:25:34.877Z,100676.87
2017-08-04T11:28:02.771Z,100685.95
2017-08-04T11:30:30.584Z,100677.75
2017-08-04T11:32:58.372Z,100695.03
2017-08-04T11:35:26.192Z,100695.64
2017-08-04T11:37:54.101Z,100699.52
2017-08-04T11:40:21.939Z,100701.37
2017-08-04T11:42:49.746Z,100690.56
2017-08-04T11:45:17.575Z,100697.52
2017-08-04T11:47:45.724Z,100692.34
2017-08-04T11:50:13.608Z,100689.38
2017-08-04T11:52:42.222Z,100691.99
2017-08-04T11:55:10.033Z,100685.11
2017-08-04T11:57:37.848Z,100690.94
2017-08-04T12:00:05.636Z,100704.38
2017-08-04T12:02:33.423Z,100702.15
2017-08-04T12:05:01.319Z,100700.52
2017-08-04T12:07:29.136Z,100700.95
2017-08-04T12:09:56.872Z,100698.23
2017-08-04T12:12:24.764Z,100696.83
2017-08-04T12:14:52.569Z,100692.45
2017-08-04T12:17:20.351Z,100701.28
2017-08-04T12:19:48.169Z,100698.30
2017-08-04T12:22:16.039Z,100691.11
2017-08-04T12:24:43.907Z,100700.22
2017-08-04T12:27:11.758Z,100707.34
2017-08-04T12:29:39.609Z,100705.86
2017-08-04T12:32:07.530Z,100700.81
2017-08-04T12:34:35.352Z,100703.23
2017-08-04T12:37:03.140Z,100709.55
2017-08-04T12:39:31.048Z,100701.02
2017-08-04T12:41:58.875Z,100711.56
2017-08-04T12:44:26.760Z,100707.14
2017-08-04T12:46:54.649Z,100706.88
2017-08-04T12:49:22.538Z,100707.56
2017-08-04T12:51:50.372Z,100719.01
2017-08-04T12:54:18.259Z,100711.45
2017-08-04T12:56:46.093Z,100717.52
2017-08-04T12:59:13.999Z,100717.91
2017-08-04T13:01:41.806Z,100720.23
2017-08-04T13:04:09.673Z,100727.08
2017-08-04T13:06:37.490Z,100723.05
2017-08-04T13:09:05.360Z,100738.11
2017-08-04T13:11:33.300Z,100730.81
2017-08-04T13:14:01.136Z,100739.02
2017-08-04T13:16:29.021Z,100725.05
2017-08-04T13:18:56.855Z,100723.95
2017-08-04T13:21:24.753Z,100730.34
2017-08-04T13:23:52.531Z,100734.62
2017-08-04T13:26:20.407Z,100727.56
2017-08-04T13:28:48.268Z,100734.50
2017-08-04T13:31:16.148Z,100726.98
2017-08-04T13:33:43.978Z,100728.05
2017-08-04T13:36:11.876Z,100740.97
2017-08-04T13:38:50.433Z,100720.59
2017-08-04T13:41:18.328Z,100733.97
2017-08-04T13:43:46.165Z,100720.73
2017-08-04T13:46:13.991Z,100715.84
2017-08-04T13:48:41.877Z,100726.05
2017-08-04T13:51:09.708Z,100726.84
2017-08-04T13:53:37.640Z,100725.61
2017-08-04T13:56:05.464Z,100723.84
2017-08-04T13:58:33.424Z,100737.89
2017-08-04T14:01:01.307Z,100728.75
2017-08-04T14:03:29.227Z,100730.56
2017-08-04T14:05:57.048Z,100732.83
2017-08-04T14:08:24.907Z,100737.28
2017-08-04T14:10:52.765Z,100729.15
2017-08-04T14:13:20.679Z,100733.59
2017-08-04T14:15:48.597Z,100740.31
2017-08-04T14:18:16.472Z,100734.42
2017-08-04T14:20:44.320Z,100720.72
2017-08-04T14:23:12.191Z,100734.50
2017-08-04T14:25:40.009Z,100735.59
2017-08-04T14:28:07.823Z,100745.39
2017-08-04T14:30:35.719Z,100735.48
2017-08-04T14:33:03.445Z,100735.45
2017-08-04T14:35:31.211Z,100735.05
2017-08-04T14:37:58.946Z,100742.93
2017-08-04T14:40:26.819Z,100749.44
2017-08-04T14:42:54.530Z,100742.92
2017-08-04T14:45:22.298Z,100752.85
2017-08-04T14:47:50.044Z,100752.86
2017-08-04T14:50:17.828Z,100757.73
2017-08-04T14:52:45.541Z,100760.77
2017-08-04T14:55:13.315Z,100753.50
2017-08-04T14:57:41.063Z,100752.30
2017-08-04T15:00:08.823Z,100745.63
2017-08-04T15:02:36.622Z,100743.58
2017-08-04T15:05:04.447Z,100753.16
2017-08-04T15:07:32.220Z,100749.05
2017-08-04T15:09:59.983Z,100755.56
2017-08-04T15:12:27.759Z,100750.62
2017-08-04T15:14:55.489Z,100753.47
2017-08-04T15:17:23.329Z,100753.16
2017-08-04T15:19:51.046Z,100750.08
2017-08-04T15:22:18.787Z,100761.84
2017-08-04T15:24:46.509Z,100761.02
2017-08-04T15:27:14.281Z,100761.45
2017-08-04T15:29:42.014Z,100748.45
2017-08-04T15:32:09.740Z,100754.73
2017-08-04T15:34:37.584Z,100754.34
2017-08-04T15:37:05.301Z,100755.17
2017-08-04T15:39:33.107Z,100749.48
2017-08-04T15:42:00.820Z,100763.25
2017-08-04T15:44:28.580Z,100748.61
2017-08-04T15:46:56.289Z,100758.96
2017-08-04T15:49:24.206Z,100760.41
2017-08-04T15:51:51.967Z,100757.36
2017-08-04T15:54:19.759Z,100756.34
2017-08-04T15:56:47.498Z,100759.81
2017-08-04T15:59:15.298Z,100753.13
2017-08-04T16:01:43.142Z,100755.73
2017-08-04T16:04:11.013Z,100751.47
2017-08-04T16:06:38.854Z,100749.24
2017-08-04T16:09:06.746Z,100751.67
2017-08-04T16:11:34.600Z,100753.27
2017-08-04T16:14:02.407Z,100760.25
2017-08-04T16:16:30.487Z,100760.18
2017-08-04T16:18:58.352Z,100760.50
2017-08-04T16:21:26.223Z,100763.50
2017-08-04T16:23:53.941Z,100767.34
2017-08-04T16:26:21.816Z,100761.70
2017-08-04T16:28:49.662Z,100763.15
2017-08-04T16:31:17.571Z,100765.39
2017-08-04T16:33:45.392Z,100770.17
2017-08-04T16:36:13.263Z,100764.66
2017-08-04T16:38:41.091Z,100770.22
2017-08-04T16:41:08.985Z,100772.23
2017-08-04T16:43:36.840Z,100768.99
2017-08-04T16:46:04.747Z,100764.53
2017-08-04T16:48:32.624Z,100775.58
2017-08-04T16:51:00.517Z,100775.13
2017-08-04T16:53:28.349Z,100773.23
2017-08-04T16:55:56.064Z,100783.88
2017-08-04T16:58:23.866Z,100785.41
2017-08-04T17:00:51.614Z,100783.58
2017-08-04T17:03:19.433Z,100793.83
2017-08-04T17:05:47.143Z,100798.08
2017-08-04T17:08:14.922Z,100806.45
2017-08-04T17:10:42.759Z,100801.31
2017-08-04T17:13:10.635Z,100799.52
2017-08-04T17:15:38.498Z,100809.41
2017-08-04T17:18:06.377Z,100806.00
2017-08-04T17:20:34.285Z,100801.16
2017-08-04T17:23:02.125Z,100802.55
2017-08-04T17:25:29.996Z,100791.56
2017-08-04T17:27:57.858Z,100801.56
2017-08-04T17:30:25.717Z,100795.31
2017-08-04T17:32:53.537Z,100793.70
2017-08-04T17:35:21.434Z,100794.05
2017-08-04T17:37:49.283Z,100793.36
2017-08-04T17:40:17.099Z,100803.26
2017-08-04T17:42:44.970Z,100803.86
2017-08-04T17:45:12.820Z,100801.47
2017-08-04T17:47:40.685Z,100811.36
2017-08-04T17:50:08.541Z,100811.52
2017-08-04T17:52:36.434Z,100817.14
2017-08-04T17:55:04.274Z,100820.53
2017-08-04T17:57:32.220Z,100823.48
2017-08-04T18:00:00.089Z,100819.75
2017-08-04T18:02:39.669Z,100818.80
2017-08-04T18:05:07.507Z,100826.07
2017-08-04T18:07:35.379Z,100820.36
2017-08-04T18:10:03.232Z,100820.19
2017-08-04T18:12:31.126Z,100823.35
2017-08-04T18:14:58.955Z,100835.64
2017-08-04T18:17:26.865Z,100832.42
2017-08-04T18:19:54.714Z,100839.52
2017-08-04T18:22:22.548Z,100835.23
2017-08-04T18:24:50.339Z,100840.50
2017-08-04T18:27:18.183Z,100847.22
2017-08-04T18:29:46.047Z,100842.63
2017-08-04T18:32:13.882Z,100850.37
2017-08-04T18:34:41.779Z,100849.58
2017-08-04T18:37:09.609Z,100851.03
2017-08-04T18:39:37.506Z,100850.03
2017-08-04T18:42:05.326Z,100854.00
2017-08-04T18:44:33.175Z,100856.70
2017-08-04T18:47:01.020Z,100855.27
2017-08-04T18:49:28.873Z,100852.00
2017-08-04T18:51:56.707Z,100857.11
2017-08-04T18:54:24.535Z,100856.48
2017-08-04T18:56:52.424Z,100857.73
2017-08-04T18:59:20.331Z,100864.77
2017-08-04T19:01:48.228Z,100866.69
2017-08-04T19:04:16.085Z,100870.87
2017-08-04T19:06:43.947Z,100874.34
2017-08-04T19:09:11.766Z,100880.86
2017-08-04T19:11:39.641Z,100881.37
2017-08-04T19:14:07.545Z,100886.19
2017-08-04T19:16:35.452Z,100886.62
2017-08-04T19:19:03.301Z,100883.19
2017-08-04T19:21:31.236Z,100888.10
2017-08-04T19:23:58.986Z,100900.28
2017-08-04T19:26:26.859Z,100897.52
2017-08-04T19:28:54.704Z,100902.89
2017-08-04T19:31:22.557Z,100906.16
2017-08-04T19:33:50.416Z,100902.56
2017-08-04T19:36:18.252Z,100904.44
2017-08-04T19:38:46.117Z,100902.52
2017-08-04T19:41:13.945Z,100909.23
2017-08-04T19:43:41.803Z,100908.64
2017-08-04T19:46:09.611Z,100908.82
2017-08-04T19:48:37.466Z,100912.41
2017-08-04T19:51:05.291Z,100919.46
2017-08-04T19:53:33.164Z,100914.79
2017-08-04T19:56:00.985Z,100921.14
2017-08-04T19:58:28.967Z,100916.67
2017-08-04T20:00:56.854Z,100921.05
2017-08-04T20:03:24.713Z,100924.48
2017-08-04T20:05:52.539Z,100924.03
2017-08-04T20:08:20.355Z,100927.98
2017-08-04T20:10:48.222Z,100923.52
2017-08-04T20:13:16.044Z,100928.98
2017-08-04T20:15:43.915Z,100928.98
2017-08-04T20:18:11.743Z,100922.11
2017-08-04T20:20:39.605Z,100923.30
2017-08-04T20:23:07.420Z,100930.06
2017-08-04T20:25:35.278Z,100922.30
2017-08-04T20:28:03.115Z,100924.76
2017-08-04T20:30:30.976Z,100920.83
2017-08-04T20:32:58.808Z,100920.61
2017-08-04T20:35:26.708Z,100914.98
2017-08-04T20:37:54.517Z,100919.47
2017-08-04T20:40:22.367Z,100921.83
2017-08-04T20:42:50.178Z,100922.42
2017-08-04T20:45:17.977Z,100914.77
2017-08-04T20:47:45.859Z,100913.58
2017-08-04T20:50:13.669Z,100918.09
2017-08-04T20:52:41.547Z,100910.69
2017-08-04T20:55:09.345Z,100926.00
2017-08-04T20:57:37.216Z,100925.55
2017-08-04T21:00:05.151Z,100929.02
2017-08-04T21:02:33.020Z,100934.28
2017-08-04T21:05:00.842Z,100935.34
2017-08-04T21:07:28.732Z,100934.06
2017-08-04T21:09:56.532Z,100935.13
2017-08-04T21:12:24.391Z,100935.42
2017-08-04T21:14:52.217Z,100932.15
2017-08-04T21:17:20.091Z,100935.73
2017-08-04T21:19:47.898Z,100940.48
2017-08-04T21:22:15.724Z,100940.85
2017-08-04T21:24:43.512Z,100943.00
2017-08-04T21:27:11.325Z,100949.81
2017-08-04T21:29:39.181Z,100950.20
2017-08-04T21:32:06.976Z,100949.45
2017-08-04T21:34:34.825Z,100957.06
2017-08-04T21:37:02.638Z,100955.36
2017-08-04T21:39:30.515Z,100962.63
2017-08-04T21:41:58.354Z,100962.73
2017-08-04T21:44:26.226Z,100969.19
2017-08-04T21:46:54.062Z,100967.95
2017-08-04T21:49:21.948Z,100963.38
2017-08-04T21:51:49.757Z,100960.69
2017-08-04T21:54:17.579Z,100968.94
2017-08-04T21:56:45.462Z,100974.70
2017-08-04T21:59:13.202Z,100966.73
2017-08-04T22:01:40.970Z,100970.73
2017-08-04T22:04:08.781Z,100968.03
2017-08-04T22:06:36.653Z,100968.03
2017-08-04T22:09:04.556Z,100968.44
2017-08-04T22:11:32.432Z,100977.61
2017-08-04T22:14:00.152Z,100975.74
2017-08-04T22:16:27.981Z,100981.48
2017-08-04T22:18:55.852Z,100987.05
2017-08-04T22:21:23.672Z,100981.54
2017-08-04T22:23:51.431Z,100981.45
2017-08-04T22:26:19.270Z,100980.83
2017-08-04T22:28:47.115Z,100987.55
2017-08-04T22:31:14.933Z,100988.19
2017-08-04T22:33:42.803Z,100984.31
2017-08-04T22:36:10.676Z,100988.44
2017-08-04T22:38:38.536Z,100995.09
2017-08-04T22:41:06.347Z,100988.85
2017-08-04T22:43:34.148Z,100990.47
2017-08-04T22:46:01.998Z,100981.83
2017-08-04T22:48:29.812Z,100994.88
2017-08-04T22:50:57.665Z,100997.79
2017-08-04T22:53:25.487Z,100995.50
2017-08-04T22:55:53.342Z,100994.53
2017-08-04T22:58:21.218Z,101003.94
2017-08-04T23:00:49.069Z,101004.96
2017-08-04T23:03:16.895Z,101003.77
2017-08-04T23:05:44.747Z,101006.01
2017-08-04T23:08:12.574Z,100998.88
2017-08-04T23:10:40.432Z,100997.09
2017-08-04T23:13:08.149Z,100993.25
2017-08-04T23:15:35.951Z,100994.99
2017-08-04T23:18:03.813Z,100995.20
2017-08-04T23:20:31.612Z,100997.38
2017-08-04T23:22:59.463Z,100998.78
2017-08-04T23:25:27.300Z,101002.83
2017-08-04T23:27:55.194Z,101009.95
2017-08-04T23:30:23.032Z,101004.19
2017-08-04T23:32:50.856Z,101006.22
2017-08-04T23:35:18.656Z,100998.32
2017-08-04T23:37:46.521Z,100998.38
2017-08-04T23:40:14.339Z,101000.19
2017-08-04T23:42:42.174Z,100995.98
2017-08-04T23:45:09.969Z,100997.80
2017-08-04T23:47:37.824Z,100990.89
2017-08-04T23:50:05.635Z,100994.47
2017-08-04T23:52:33.437Z,101002.58
2017-08-04T23:55:01.272Z,101005.38
2017-08-04T23:57:29.091Z,100997.27
2017-08-04T23:59:56.983Z,101002.89
